sensor_id;sensor_type;location;lat;lon;timestamp;temperature;humidity
38514;DHT22;24282;48.400;10.808;2023-01-04T00:01:03;3.50;87.50
38514;DHT22;24282;48.400;10.808;2023-01-04T00:03:29;3.50;87.60
38514;DHT22;24282;48.400;10.808;2023-01-04T00:06:02;3.50;87.70
38514;DHT22;24282;48.400;10.808;2023-01-04T00:08:28;3.50;87.70
38514;DHT22;24282;48.400;10.808;2023-01-04T00:11:06;3.60;87.70
38514;DHT22;24282;48.400;10.808;2023-01-04T00:13:32;3.60;87.70
38514;DHT22;24282;48.400;10.808;2023-01-04T00:16:03;3.60;87.60
38514;DHT22;24282;48.400;10.808;2023-01-04T00:18:30;3.70;87.60
38514;DHT22;24282;48.400;10.808;2023-01-04T00:21:25;3.70;87.70
38514;DHT22;24282;48.400;10.808;2023-01-04T00:23:53;3.70;87.90
38514;DHT22;24282;48.400;10.808;2023-01-04T00:26:27;3.70;88.00
38514;DHT22;24282;48.400;10.808;2023-01-04T00:29:00;3.70;88.10
38514;DHT22;24282;48.400;10.808;2023-01-04T00:31:27;3.80;88.10
38514;DHT22;24282;48.400;10.808;2023-01-04T00:33:58;3.80;88.20
38514;DHT22;24282;48.400;10.808;2023-01-04T00:36:25;3.80;88.20
38514;DHT22;24282;48.400;10.808;2023-01-04T00:38:51;3.80;88.20
38514;DHT22;24282;48.400;10.808;2023-01-04T00:41:41;3.80;88.20
38514;DHT22;24282;48.400;10.808;2023-01-04T00:44:07;3.90;88.30
38514;DHT22;24282;48.400;10.808;2023-01-04T00:46:34;3.90;88.30
38514;DHT22;24282;48.400;10.808;2023-01-04T00:49:00;3.90;88.40
38514;DHT22;24282;48.400;10.808;2023-01-04T00:51:26;3.90;88.60
38514;DHT22;24282;48.400;10.808;2023-01-04T00:53:52;3.90;88.70
38514;DHT22;24282;48.400;10.808;2023-01-04T00:56:18;4.00;88.80
38514;DHT22;24282;48.400;10.808;2023-01-04T00:58:43;4.00;88.90
38514;DHT22;24282;48.400;10.808;2023-01-04T01:01:09;4.00;89.10
38514;DHT22;24282;48.400;10.808;2023-01-04T01:03:35;4.00;89.20
38514;DHT22;24282;48.400;10.808;2023-01-04T01:06:05;4.00;89.40
38514;DHT22;24282;48.400;10.808;2023-01-04T01:08:32;4.10;89.40
38514;DHT22;24282;48.400;10.808;2023-01-04T01:11:04;4.10;89.40
38514;DHT22;24282;48.400;10.808;2023-01-04T01:13:30;4.10;89.50
38514;DHT22;24282;48.400;10.808;2023-01-04T01:16:02;4.10;89.50
38514;DHT22;24282;48.400;10.808;2023-01-04T01:18:28;4.20;89.60
38514;DHT22;24282;48.400;10.808;2023-01-04T01:20:54;4.20;89.70
38514;DHT22;24282;48.400;10.808;2023-01-04T01:23:20;4.20;89.70
38514;DHT22;24282;48.400;10.808;2023-01-04T01:25:46;4.20;89.70
38514;DHT22;24282;48.400;10.808;2023-01-04T01:28:11;4.30;89.80
38514;DHT22;24282;48.400;10.808;2023-01-04T01:30:41;4.30;89.80
38514;DHT22;24282;48.400;10.808;2023-01-04T01:33:10;4.30;89.80
38514;DHT22;24282;48.400;10.808;2023-01-04T01:35:36;4.30;89.70
38514;DHT22;24282;48.400;10.808;2023-01-04T01:38:02;4.30;89.70
38514;DHT22;24282;48.400;10.808;2023-01-04T01:40:28;4.40;89.70
38514;DHT22;24282;48.400;10.808;2023-01-04T01:42:54;4.40;89.60
38514;DHT22;24282;48.400;10.808;2023-01-04T01:45:31;4.30;89.60
38514;DHT22;24282;48.400;10.808;2023-01-04T01:48:14;4.40;89.60
38514;DHT22;24282;48.400;10.808;2023-01-04T01:50:46;4.40;89.60
38514;DHT22;24282;48.400;10.808;2023-01-04T01:53:13;4.40;89.50
38514;DHT22;24282;48.400;10.808;2023-01-04T01:55:40;4.50;89.50
38514;DHT22;24282;48.400;10.808;2023-01-04T01:58:08;4.40;89.50
38514;DHT22;24282;48.400;10.808;2023-01-04T02:00:38;4.40;89.50
38514;DHT22;24282;48.400;10.808;2023-01-04T02:03:15;4.40;89.50
38514;DHT22;24282;48.400;10.808;2023-01-04T02:05:42;4.40;89.50
38514;DHT22;24282;48.400;10.808;2023-01-04T02:08:09;4.40;89.50
38514;DHT22;24282;48.400;10.808;2023-01-04T02:10:36;4.40;89.50
38514;DHT22;24282;48.400;10.808;2023-01-04T02:13:10;4.40;89.40
38514;DHT22;24282;48.400;10.808;2023-01-04T02:15:55;4.40;89.30
38514;DHT22;24282;48.400;10.808;2023-01-04T02:18:32;4.30;89.20
38514;DHT22;24282;48.400;10.808;2023-01-04T02:21:05;4.30;89.10
38514;DHT22;24282;48.400;10.808;2023-01-04T02:29:26;4.20;89.00
38514;DHT22;24282;48.400;10.808;2023-01-04T02:32:17;4.20;89.00
38514;DHT22;24282;48.400;10.808;2023-01-04T02:38:01;4.20;89.00
38514;DHT22;24282;48.400;10.808;2023-01-04T02:41:07;4.20;89.00
38514;DHT22;24282;48.400;10.808;2023-01-04T02:46:50;4.10;88.80
38514;DHT22;24282;48.400;10.808;2023-01-04T02:49:18;4.20;88.70
38514;DHT22;24282;48.400;10.808;2023-01-04T02:52:02;4.20;88.80
38514;DHT22;24282;48.400;10.808;2023-01-04T02:54:29;4.10;88.90
38514;DHT22;24282;48.400;10.808;2023-01-04T02:57:31;4.20;89.00
38514;DHT22;24282;48.400;10.808;2023-01-04T03:11:12;4.20;89.20
38514;DHT22;24282;48.400;10.808;2023-01-04T03:14:01;4.20;89.10
38514;DHT22;24282;48.400;10.808;2023-01-04T03:16:29;4.20;89.00
38514;DHT22;24282;48.400;10.808;2023-01-04T03:18:57;4.20;89.10
38514;DHT22;24282;48.400;10.808;2023-01-04T03:21:29;4.20;89.10
38514;DHT22;24282;48.400;10.808;2023-01-04T03:23:58;4.20;89.20
38514;DHT22;24282;48.400;10.808;2023-01-04T03:26:50;4.20;89.20
38514;DHT22;24282;48.400;10.808;2023-01-04T03:29:43;4.30;89.30
38514;DHT22;24282;48.400;10.808;2023-01-04T03:32:55;4.30;89.40
38514;DHT22;24282;48.400;10.808;2023-01-04T03:35:45;4.30;89.40
38514;DHT22;24282;48.400;10.808;2023-01-04T03:41:18;4.40;89.60
38514;DHT22;24282;48.400;10.808;2023-01-04T03:44:22;4.40;89.80
38514;DHT22;24282;48.400;10.808;2023-01-04T03:47:18;4.40;89.80
38514;DHT22;24282;48.400;10.808;2023-01-04T03:50:11;4.50;89.80
38514;DHT22;24282;48.400;10.808;2023-01-04T03:52:39;4.50;89.70
38514;DHT22;24282;48.400;10.808;2023-01-04T03:55:07;4.50;89.70
38514;DHT22;24282;48.400;10.808;2023-01-04T03:57:34;4.50;89.80
38514;DHT22;24282;48.400;10.808;2023-01-04T04:00:11;4.50;89.90
38514;DHT22;24282;48.400;10.808;2023-01-04T04:02:38;4.50;90.00
38514;DHT22;24282;48.400;10.808;2023-01-04T04:05:04;4.50;90.10
38514;DHT22;24282;48.400;10.808;2023-01-04T04:07:49;4.50;90.10
38514;DHT22;24282;48.400;10.808;2023-01-04T04:10:33;4.50;90.20
38514;DHT22;24282;48.400;10.808;2023-01-04T04:12:59;4.60;90.30
38514;DHT22;24282;48.400;10.808;2023-01-04T04:15:25;4.60;90.30
38514;DHT22;24282;48.400;10.808;2023-01-04T04:17:50;4.60;90.30
38514;DHT22;24282;48.400;10.808;2023-01-04T04:20:16;4.60;90.30
38514;DHT22;24282;48.400;10.808;2023-01-04T04:22:42;4.60;90.20
38514;DHT22;24282;48.400;10.808;2023-01-04T04:25:08;4.60;90.20
38514;DHT22;24282;48.400;10.808;2023-01-04T04:27:34;4.60;90.10
38514;DHT22;24282;48.400;10.808;2023-01-04T04:29:59;4.60;90.00
38514;DHT22;24282;48.400;10.808;2023-01-04T04:32:27;4.60;89.90
38514;DHT22;24282;48.400;10.808;2023-01-04T04:34:53;4.60;89.80
38514;DHT22;24282;48.400;10.808;2023-01-04T04:37:18;4.60;89.80
38514;DHT22;24282;48.400;10.808;2023-01-04T04:39:44;4.60;89.70
38514;DHT22;24282;48.400;10.808;2023-01-04T04:42:10;4.60;89.60
38514;DHT22;24282;48.400;10.808;2023-01-04T04:44:36;4.60;89.60
38514;DHT22;24282;48.400;10.808;2023-01-04T04:47:02;4.60;89.60
38514;DHT22;24282;48.400;10.808;2023-01-04T04:49:28;4.60;89.60
38514;DHT22;24282;48.400;10.808;2023-01-04T04:51:54;4.60;89.80
38514;DHT22;24282;48.400;10.808;2023-01-04T04:54:20;4.60;89.90
38514;DHT22;24282;48.400;10.808;2023-01-04T04:56:48;4.60;90.00
38514;DHT22;24282;48.400;10.808;2023-01-04T04:59:14;4.60;90.10
38514;DHT22;24282;48.400;10.808;2023-01-04T05:01:40;4.70;90.20
38514;DHT22;24282;48.400;10.808;2023-01-04T05:04:06;4.70;90.20
38514;DHT22;24282;48.400;10.808;2023-01-04T05:06:32;4.70;90.20
38514;DHT22;24282;48.400;10.808;2023-01-04T05:08:58;4.70;90.20
38514;DHT22;24282;48.400;10.808;2023-01-04T05:11:24;4.70;90.20
38514;DHT22;24282;48.400;10.808;2023-01-04T05:14:08;4.70;90.10
38514;DHT22;24282;48.400;10.808;2023-01-04T05:16:34;4.70;90.10
38514;DHT22;24282;48.400;10.808;2023-01-04T05:19:00;4.70;90.00
38514;DHT22;24282;48.400;10.808;2023-01-04T05:21:26;4.70;90.00
38514;DHT22;24282;48.400;10.808;2023-01-04T05:23:52;4.70;89.90
38514;DHT22;24282;48.400;10.808;2023-01-04T05:26:17;4.60;89.80
38514;DHT22;24282;48.400;10.808;2023-01-04T05:28:43;4.60;89.50
38514;DHT22;24282;48.400;10.808;2023-01-04T05:31:09;4.50;89.40
38514;DHT22;24282;48.400;10.808;2023-01-04T05:33:35;4.50;89.30
38514;DHT22;24282;48.400;10.808;2023-01-04T05:36:02;4.50;89.10
38514;DHT22;24282;48.400;10.808;2023-01-04T05:38:28;4.50;89.20
38514;DHT22;24282;48.400;10.808;2023-01-04T05:40:55;4.50;89.30
38514;DHT22;24282;48.400;10.808;2023-01-04T05:43:22;4.50;89.50
38514;DHT22;24282;48.400;10.808;2023-01-04T05:45:53;4.50;89.60
38514;DHT22;24282;48.400;10.808;2023-01-04T05:48:20;4.50;89.80
38514;DHT22;24282;48.400;10.808;2023-01-04T05:50:46;4.50;89.90
38514;DHT22;24282;48.400;10.808;2023-01-04T05:53:13;4.60;89.80
38514;DHT22;24282;48.400;10.808;2023-01-04T05:55:42;4.50;89.70
38514;DHT22;24282;48.400;10.808;2023-01-04T05:58:07;4.50;89.50
38514;DHT22;24282;48.400;10.808;2023-01-04T06:00:33;4.50;89.50
38514;DHT22;24282;48.400;10.808;2023-01-04T06:02:59;4.50;89.20
38514;DHT22;24282;48.400;10.808;2023-01-04T06:05:25;4.50;89.30
38514;DHT22;24282;48.400;10.808;2023-01-04T06:07:51;4.50;89.50
38514;DHT22;24282;48.400;10.808;2023-01-04T06:10:17;4.60;89.60
38514;DHT22;24282;48.400;10.808;2023-01-04T06:12:44;4.60;89.80
38514;DHT22;24282;48.400;10.808;2023-01-04T06:15:10;4.70;90.10
38514;DHT22;24282;48.400;10.808;2023-01-04T06:17:37;4.80;90.70
38514;DHT22;24282;48.400;10.808;2023-01-04T06:20:04;4.90;91.20
38514;DHT22;24282;48.400;10.808;2023-01-04T06:22:30;5.00;91.40
38514;DHT22;24282;48.400;10.808;2023-01-04T06:24:57;5.10;91.50
38514;DHT22;24282;48.400;10.808;2023-01-04T06:27:23;5.10;91.50
38514;DHT22;24282;48.400;10.808;2023-01-04T06:29:49;5.10;91.30
38514;DHT22;24282;48.400;10.808;2023-01-04T06:32:15;5.20;91.20
38514;DHT22;24282;48.400;10.808;2023-01-04T06:34:41;5.20;91.00
38514;DHT22;24282;48.400;10.808;2023-01-04T06:37:07;5.20;91.00
38514;DHT22;24282;48.400;10.808;2023-01-04T06:39:34;5.20;91.00
38514;DHT22;24282;48.400;10.808;2023-01-04T06:42:00;5.20;91.00
38514;DHT22;24282;48.400;10.808;2023-01-04T06:44:25;5.20;91.00
38514;DHT22;24282;48.400;10.808;2023-01-04T06:46:51;5.40;90.80
38514;DHT22;24282;48.400;10.808;2023-01-04T06:49:17;5.30;90.70
38514;DHT22;24282;48.400;10.808;2023-01-04T06:51:42;5.40;90.70
38514;DHT22;24282;48.400;10.808;2023-01-04T06:54:09;5.40;90.40
38514;DHT22;24282;48.400;10.808;2023-01-04T06:56:36;5.50;90.50
38514;DHT22;24282;48.400;10.808;2023-01-04T06:59:02;5.40;90.20
38514;DHT22;24282;48.400;10.808;2023-01-04T07:01:28;5.40;90.20
38514;DHT22;24282;48.400;10.808;2023-01-04T07:03:53;5.40;90.40
38514;DHT22;24282;48.400;10.808;2023-01-04T07:06:19;5.30;90.40
38514;DHT22;24282;48.400;10.808;2023-01-04T07:08:45;5.30;90.40
38514;DHT22;24282;48.400;10.808;2023-01-04T07:11:11;5.30;90.30
38514;DHT22;24282;48.400;10.808;2023-01-04T07:13:37;5.40;90.30
38514;DHT22;24282;48.400;10.808;2023-01-04T07:16:03;5.40;90.20
38514;DHT22;24282;48.400;10.808;2023-01-04T07:18:28;5.30;90.10
38514;DHT22;24282;48.400;10.808;2023-01-04T07:20:54;5.30;90.10
38514;DHT22;24282;48.400;10.808;2023-01-04T07:23:20;5.30;90.10
38514;DHT22;24282;48.400;10.808;2023-01-04T07:25:46;5.30;90.20
38514;DHT22;24282;48.400;10.808;2023-01-04T07:28:11;5.20;90.30
38514;DHT22;24282;48.400;10.808;2023-01-04T07:30:57;5.20;90.30
38514;DHT22;24282;48.400;10.808;2023-01-04T07:33:23;5.20;90.20
38514;DHT22;24282;48.400;10.808;2023-01-04T07:35:48;5.20;90.20
38514;DHT22;24282;48.400;10.808;2023-01-04T07:38:14;5.20;90.10
38514;DHT22;24282;48.400;10.808;2023-01-04T07:40:40;5.20;90.10
38514;DHT22;24282;48.400;10.808;2023-01-04T07:43:06;5.20;90.10
38514;DHT22;24282;48.400;10.808;2023-01-04T07:45:31;5.30;90.00
38514;DHT22;24282;48.400;10.808;2023-01-04T07:47:57;5.30;90.10
38514;DHT22;24282;48.400;10.808;2023-01-04T07:50:23;5.30;90.10
38514;DHT22;24282;48.400;10.808;2023-01-04T07:52:49;5.30;90.10
38514;DHT22;24282;48.400;10.808;2023-01-04T07:55:15;5.40;90.20
38514;DHT22;24282;48.400;10.808;2023-01-04T07:57:40;5.40;90.10
38514;DHT22;24282;48.400;10.808;2023-01-04T08:00:07;5.40;90.20
38514;DHT22;24282;48.400;10.808;2023-01-04T08:02:37;5.40;90.20
38514;DHT22;24282;48.400;10.808;2023-01-04T08:05:03;5.50;90.20
38514;DHT22;24282;48.400;10.808;2023-01-04T08:07:29;5.50;90.30
38514;DHT22;24282;48.400;10.808;2023-01-04T08:09:55;5.50;90.20
38514;DHT22;24282;48.400;10.808;2023-01-04T08:12:20;5.50;90.20
38514;DHT22;24282;48.400;10.808;2023-01-04T08:14:46;5.50;90.20
38514;DHT22;24282;48.400;10.808;2023-01-04T08:17:12;5.50;90.20
38514;DHT22;24282;48.400;10.808;2023-01-04T08:19:38;5.60;90.30
38514;DHT22;24282;48.400;10.808;2023-01-04T08:22:03;5.60;90.30
38514;DHT22;24282;48.400;10.808;2023-01-04T08:24:29;5.60;90.40
38514;DHT22;24282;48.400;10.808;2023-01-04T08:26:55;5.70;90.40
38514;DHT22;24282;48.400;10.808;2023-01-04T08:29:21;5.70;90.40
38514;DHT22;24282;48.400;10.808;2023-01-04T08:31:46;5.80;90.50
38514;DHT22;24282;48.400;10.808;2023-01-04T08:34:12;5.80;90.50
38514;DHT22;24282;48.400;10.808;2023-01-04T08:36:49;5.90;90.60
38514;DHT22;24282;48.400;10.808;2023-01-04T08:39:15;6.00;90.60
38514;DHT22;24282;48.400;10.808;2023-01-04T08:41:41;6.10;90.40
38514;DHT22;24282;48.400;10.808;2023-01-04T08:44:17;6.20;90.30
38514;DHT22;24282;48.400;10.808;2023-01-04T08:46:43;6.30;90.10
38514;DHT22;24282;48.400;10.808;2023-01-04T08:49:09;6.30;90.00
38514;DHT22;24282;48.400;10.808;2023-01-04T08:51:35;6.40;89.80
38514;DHT22;24282;48.400;10.808;2023-01-04T08:54:01;6.50;89.40
38514;DHT22;24282;48.400;10.808;2023-01-04T08:56:26;6.50;88.90
38514;DHT22;24282;48.400;10.808;2023-01-04T08:58:52;6.60;88.50
38514;DHT22;24282;48.400;10.808;2023-01-04T09:01:18;6.80;87.90
38514;DHT22;24282;48.400;10.808;2023-01-04T09:03:43;6.80;87.80
38514;DHT22;24282;48.400;10.808;2023-01-04T09:06:12;6.80;87.80
38514;DHT22;24282;48.400;10.808;2023-01-04T09:08:39;6.90;87.50
38514;DHT22;24282;48.400;10.808;2023-01-04T09:11:13;6.90;87.40
38514;DHT22;24282;48.400;10.808;2023-01-04T09:13:40;6.90;87.20
38514;DHT22;24282;48.400;10.808;2023-01-04T09:16:14;6.90;87.00
38514;DHT22;24282;48.400;10.808;2023-01-04T09:18:41;7.00;86.90
38514;DHT22;24282;48.400;10.808;2023-01-04T09:21:10;7.00;86.90
38514;DHT22;24282;48.400;10.808;2023-01-04T09:23:36;7.00;86.50
38514;DHT22;24282;48.400;10.808;2023-01-04T09:28:32;7.00;86.50
38514;DHT22;24282;48.400;10.808;2023-01-04T09:30:57;7.00;86.10
38514;DHT22;24282;48.400;10.808;2023-01-04T09:33:23;7.20;85.20
38514;DHT22;24282;48.400;10.808;2023-01-04T09:35:49;7.20;85.00
38514;DHT22;24282;48.400;10.808;2023-01-04T09:38:14;7.20;84.40
38514;DHT22;24282;48.400;10.808;2023-01-04T09:41:07;7.20;84.50
38514;DHT22;24282;48.400;10.808;2023-01-04T09:43:49;7.20;84.80
38514;DHT22;24282;48.400;10.808;2023-01-04T09:48:44;7.30;84.00
38514;DHT22;24282;48.400;10.808;2023-01-04T09:51:15;7.30;83.70
38514;DHT22;24282;48.400;10.808;2023-01-04T09:53:47;7.30;83.40
38514;DHT22;24282;48.400;10.808;2023-01-04T09:56:22;7.30;83.40
38514;DHT22;24282;48.400;10.808;2023-01-04T09:58:51;7.40;83.40
38514;DHT22;24282;48.400;10.808;2023-01-04T10:01:21;7.30;83.20
38514;DHT22;24282;48.400;10.808;2023-01-04T10:03:59;7.40;83.30
38514;DHT22;24282;48.400;10.808;2023-01-04T10:06:26;7.40;83.20
38514;DHT22;24282;48.400;10.808;2023-01-04T10:08:54;7.30;83.50
38514;DHT22;24282;48.400;10.808;2023-01-04T10:14:32;7.50;82.50
38514;DHT22;24282;48.400;10.808;2023-01-04T10:17:09;7.60;82.00
38514;DHT22;24282;48.400;10.808;2023-01-04T10:33:10;7.70;81.30
38514;DHT22;24282;48.400;10.808;2023-01-04T10:35:37;7.80;80.60
38514;DHT22;24282;48.400;10.808;2023-01-04T10:38:16;7.80;81.10
38514;DHT22;24282;48.400;10.808;2023-01-04T10:40:44;7.80;81.40
38514;DHT22;24282;48.400;10.808;2023-01-04T10:43:17;7.80;81.50
38514;DHT22;24282;48.400;10.808;2023-01-04T10:46:01;7.80;81.30
38514;DHT22;24282;48.400;10.808;2023-01-04T10:50:58;7.80;82.50
38514;DHT22;24282;48.400;10.808;2023-01-04T10:56:29;7.90;82.30
38514;DHT22;24282;48.400;10.808;2023-01-04T10:59:44;8.00;81.10
38514;DHT22;24282;48.400;10.808;2023-01-04T11:01:52;8.00;81.00
38514;DHT22;24282;48.400;10.808;2023-01-04T11:04:25;8.10;80.60
38514;DHT22;24282;48.400;10.808;2023-01-04T11:07:05;8.00;80.40
38514;DHT22;24282;48.400;10.808;2023-01-04T11:09:45;7.90;80.80
38514;DHT22;24282;48.400;10.808;2023-01-04T11:12:16;8.00;80.10
38514;DHT22;24282;48.400;10.808;2023-01-04T11:14:43;7.90;80.50
38514;DHT22;24282;48.400;10.808;2023-01-04T11:17:11;8.00;79.80
38514;DHT22;24282;48.400;10.808;2023-01-04T11:19:38;8.00;79.50
38514;DHT22;24282;48.400;10.808;2023-01-04T11:22:18;7.90;80.00
38514;DHT22;24282;48.400;10.808;2023-01-04T11:24:49;7.90;79.60
38514;DHT22;24282;48.400;10.808;2023-01-04T11:27:24;8.00;79.10
38514;DHT22;24282;48.400;10.808;2023-01-04T11:29:59;8.00;78.90
38514;DHT22;24282;48.400;10.808;2023-01-04T11:32:43;8.10;78.30
38514;DHT22;24282;48.400;10.808;2023-01-04T11:35:10;8.00;78.90
38514;DHT22;24282;48.400;10.808;2023-01-04T11:37:38;8.00;78.80
38514;DHT22;24282;48.400;10.808;2023-01-04T11:40:22;8.10;78.40
38514;DHT22;24282;48.400;10.808;2023-01-04T11:43:20;8.00;78.70
38514;DHT22;24282;48.400;10.808;2023-01-04T11:46:04;8.00;78.90
38514;DHT22;24282;48.400;10.808;2023-01-04T11:48:39;8.10;79.00
38514;DHT22;24282;48.400;10.808;2023-01-04T11:51:14;8.10;78.60
38514;DHT22;24282;48.400;10.808;2023-01-04T11:53:41;8.00;78.70
38514;DHT22;24282;48.400;10.808;2023-01-04T11:56:34;8.10;78.30
38514;DHT22;24282;48.400;10.808;2023-01-04T11:59:16;8.00;78.40
38514;DHT22;24282;48.400;10.808;2023-01-04T12:01:44;8.00;78.00
38514;DHT22;24282;48.400;10.808;2023-01-04T12:04:22;8.00;77.50
38514;DHT22;24282;48.400;10.808;2023-01-04T12:09:18;8.00;77.30
38514;DHT22;24282;48.400;10.808;2023-01-04T12:11:56;8.00;77.20
38514;DHT22;24282;48.400;10.808;2023-01-04T12:14:34;7.90;77.80
38514;DHT22;24282;48.400;10.808;2023-01-04T12:17:27;8.00;78.10
38514;DHT22;24282;48.400;10.808;2023-01-04T12:19:56;8.10;77.20
38514;DHT22;24282;48.400;10.808;2023-01-04T12:22:35;8.10;77.70
38514;DHT22;24282;48.400;10.808;2023-01-04T12:25:06;8.10;77.10
38514;DHT22;24282;48.400;10.808;2023-01-04T12:27:33;8.10;77.50
38514;DHT22;24282;48.400;10.808;2023-01-04T12:30:04;8.10;77.70
38514;DHT22;24282;48.400;10.808;2023-01-04T12:34:56;8.20;77.00
38514;DHT22;24282;48.400;10.808;2023-01-04T12:45:41;8.40;76.40
38514;DHT22;24282;48.400;10.808;2023-01-04T12:48:42;8.50;76.60
38514;DHT22;24282;48.400;10.808;2023-01-04T12:51:44;8.50;76.30
38514;DHT22;24282;48.400;10.808;2023-01-04T12:54:23;8.50;76.70
38514;DHT22;24282;48.400;10.808;2023-01-04T12:57:24;8.50;76.60
38514;DHT22;24282;48.400;10.808;2023-01-04T13:02:30;8.70;76.00
38514;DHT22;24282;48.400;10.808;2023-01-04T13:05:02;8.80;75.10
38514;DHT22;24282;48.400;10.808;2023-01-04T13:08:00;8.90;75.30
38514;DHT22;24282;48.400;10.808;2023-01-04T13:20:57;8.80;75.90
38514;DHT22;24282;48.400;10.808;2023-01-04T13:23:25;8.80;75.90
38514;DHT22;24282;48.400;10.808;2023-01-04T13:25:51;8.80;76.50
38514;DHT22;24282;48.400;10.808;2023-01-04T13:28:18;8.80;76.70
38514;DHT22;24282;48.400;10.808;2023-01-04T13:30:44;8.90;76.00
38514;DHT22;24282;48.400;10.808;2023-01-04T13:33:17;8.90;76.60
38514;DHT22;24282;48.400;10.808;2023-01-04T13:35:56;8.90;76.70
38514;DHT22;24282;48.400;10.808;2023-01-04T13:38:24;8.90;76.30
38514;DHT22;24282;48.400;10.808;2023-01-04T13:40:49;8.90;76.60
38514;DHT22;24282;48.400;10.808;2023-01-04T13:46:12;9.00;76.30
38514;DHT22;24282;48.400;10.808;2023-01-04T13:48:44;9.00;76.00
38514;DHT22;24282;48.400;10.808;2023-01-04T13:51:33;9.00;75.90
38514;DHT22;24282;48.400;10.808;2023-01-04T13:54:16;9.10;75.50
38514;DHT22;24282;48.400;10.808;2023-01-04T13:56:42;9.10;75.30
38514;DHT22;24282;48.400;10.808;2023-01-04T13:59:08;9.00;75.60
38514;DHT22;24282;48.400;10.808;2023-01-04T14:01:37;9.10;75.60
38514;DHT22;24282;48.400;10.808;2023-01-04T14:04:14;9.00;75.50
38514;DHT22;24282;48.400;10.808;2023-01-04T14:06:47;9.10;75.30
38514;DHT22;24282;48.400;10.808;2023-01-04T14:09:14;9.10;75.20
38514;DHT22;24282;48.400;10.808;2023-01-04T14:20:05;9.10;74.40
38514;DHT22;24282;48.400;10.808;2023-01-04T14:33:49;9.00;74.90
38514;DHT22;24282;48.400;10.808;2023-01-04T14:36:19;9.00;74.70
38514;DHT22;24282;48.400;10.808;2023-01-04T14:44:09;9.10;74.40
38514;DHT22;24282;48.400;10.808;2023-01-04T14:46:36;9.20;74.10
38514;DHT22;24282;48.400;10.808;2023-01-04T14:49:02;9.10;74.20
38514;DHT22;24282;48.400;10.808;2023-01-04T14:51:50;9.00;74.60
38514;DHT22;24282;48.400;10.808;2023-01-04T14:54:16;9.00;74.90
38514;DHT22;24282;48.400;10.808;2023-01-04T14:56:42;8.90;75.20
38514;DHT22;24282;48.400;10.808;2023-01-04T14:59:08;8.90;75.20
38514;DHT22;24282;48.400;10.808;2023-01-04T15:01:34;8.90;75.20
38514;DHT22;24282;48.400;10.808;2023-01-04T15:04:03;8.90;75.40
38514;DHT22;24282;48.400;10.808;2023-01-04T15:06:30;9.10;74.90
38514;DHT22;24282;48.400;10.808;2023-01-04T15:08:55;9.10;74.70
38514;DHT22;24282;48.400;10.808;2023-01-04T15:11:21;9.00;75.20
38514;DHT22;24282;48.400;10.808;2023-01-04T15:13:47;8.90;75.60
38514;DHT22;24282;48.400;10.808;2023-01-04T15:16:15;8.90;75.60
38514;DHT22;24282;48.400;10.808;2023-01-04T15:18:42;9.00;75.50
38514;DHT22;24282;48.400;10.808;2023-01-04T15:21:08;8.90;75.50
38514;DHT22;24282;48.400;10.808;2023-01-04T15:23:34;8.90;75.60
38514;DHT22;24282;48.400;10.808;2023-01-04T15:26:07;8.90;75.80
38514;DHT22;24282;48.400;10.808;2023-01-04T15:28:34;8.90;75.80
38514;DHT22;24282;48.400;10.808;2023-01-04T15:31:03;8.80;76.20
38514;DHT22;24282;48.400;10.808;2023-01-04T15:33:29;8.90;76.10
38514;DHT22;24282;48.400;10.808;2023-01-04T15:36:07;8.80;76.50
38514;DHT22;24282;48.400;10.808;2023-01-04T15:38:35;8.80;76.40
38514;DHT22;24282;48.400;10.808;2023-01-04T15:41:03;8.80;76.60
38514;DHT22;24282;48.400;10.808;2023-01-04T15:43:32;8.90;76.30
38514;DHT22;24282;48.400;10.808;2023-01-04T15:46:02;9.00;75.90
38514;DHT22;24282;48.400;10.808;2023-01-04T15:48:28;9.00;75.90
38514;DHT22;24282;48.400;10.808;2023-01-04T15:50:54;8.90;76.20
38514;DHT22;24282;48.400;10.808;2023-01-04T15:53:19;8.90;76.30
38514;DHT22;24282;48.400;10.808;2023-01-04T15:55:45;8.90;76.40
38514;DHT22;24282;48.400;10.808;2023-01-04T15:58:11;8.80;76.70
38514;DHT22;24282;48.400;10.808;2023-01-04T16:00:37;8.80;77.10
38514;DHT22;24282;48.400;10.808;2023-01-04T16:03:03;8.70;77.20
38514;DHT22;24282;48.400;10.808;2023-01-04T16:05:29;8.70;77.10
38514;DHT22;24282;48.400;10.808;2023-01-04T16:07:55;8.90;76.70
38514;DHT22;24282;48.400;10.808;2023-01-04T16:10:21;8.90;76.20
38514;DHT22;24282;48.400;10.808;2023-01-04T16:12:47;8.90;76.40
38514;DHT22;24282;48.400;10.808;2023-01-04T16:15:15;8.90;76.30
38514;DHT22;24282;48.400;10.808;2023-01-04T16:17:42;9.00;76.00
38514;DHT22;24282;48.400;10.808;2023-01-04T16:20:10;9.10;75.90
38514;DHT22;24282;48.400;10.808;2023-01-04T16:22:37;9.00;76.00
38514;DHT22;24282;48.400;10.808;2023-01-04T16:25:03;9.10;75.60
38514;DHT22;24282;48.400;10.808;2023-01-04T16:27:31;9.10;75.70
38514;DHT22;24282;48.400;10.808;2023-01-04T16:29:58;9.10;75.60
38514;DHT22;24282;48.400;10.808;2023-01-04T16:32:24;9.10;75.60
38514;DHT22;24282;48.400;10.808;2023-01-04T16:34:50;9.10;75.50
38514;DHT22;24282;48.400;10.808;2023-01-04T16:37:16;9.10;75.60
38514;DHT22;24282;48.400;10.808;2023-01-04T16:39:42;9.00;75.80
38514;DHT22;24282;48.400;10.808;2023-01-04T16:42:08;9.00;76.30
38514;DHT22;24282;48.400;10.808;2023-01-04T16:44:37;8.90;76.30
38514;DHT22;24282;48.400;10.808;2023-01-04T16:47:03;8.90;76.40
38514;DHT22;24282;48.400;10.808;2023-01-04T16:49:28;8.90;76.50
38514;DHT22;24282;48.400;10.808;2023-01-04T16:51:54;8.80;76.90
38514;DHT22;24282;48.400;10.808;2023-01-04T16:54:20;8.80;76.90
38514;DHT22;24282;48.400;10.808;2023-01-04T16:56:46;8.80;76.90
38514;DHT22;24282;48.400;10.808;2023-01-04T16:59:15;8.80;77.00
38514;DHT22;24282;48.400;10.808;2023-01-04T17:01:44;8.80;77.30
38514;DHT22;24282;48.400;10.808;2023-01-04T17:04:10;8.70;77.30
38514;DHT22;24282;48.400;10.808;2023-01-04T17:06:40;8.80;77.50
38514;DHT22;24282;48.400;10.808;2023-01-04T17:09:11;8.80;77.30
38514;DHT22;24282;48.400;10.808;2023-01-04T17:11:37;8.90;77.30
38514;DHT22;24282;48.400;10.808;2023-01-04T17:14:04;8.90;77.30
38514;DHT22;24282;48.400;10.808;2023-01-04T17:16:30;8.80;77.40
38514;DHT22;24282;48.400;10.808;2023-01-04T17:18:56;8.90;77.30
38514;DHT22;24282;48.400;10.808;2023-01-04T17:21:25;8.90;77.40
38514;DHT22;24282;48.400;10.808;2023-01-04T17:23:53;8.90;77.60
38514;DHT22;24282;48.400;10.808;2023-01-04T17:26:24;8.90;77.90
38514;DHT22;24282;48.400;10.808;2023-01-04T17:28:51;8.90;77.60
38514;DHT22;24282;48.400;10.808;2023-01-04T17:31:22;8.90;77.70
38514;DHT22;24282;48.400;10.808;2023-01-04T17:33:49;8.90;77.60
38514;DHT22;24282;48.400;10.808;2023-01-04T17:36:17;8.90;77.60